createdAt,value
2022-08-12T05:32:03.066Z,21.30
2022-08-12T05:34:31.807Z,21.20
2022-08-12T05:37:00.473Z,21.30
2022-08-12T05:39:28.820Z,21.50
2022-08-12T05:41:57.736Z,21.60
2022-08-12T05:44:25.823Z,21.70
2022-08-12T05:46:53.905Z,21.90
2022-08-12T05:49:23.324Z,22.00
2022-08-12T05:51:51.421Z,22.10
2022-08-12T05:54:21.990Z,22.20
2022-08-12T05:57:03.642Z,22.30
2022-08-12T05:59:32.539Z,22.30
2022-08-12T06:02:09.383Z,22.40
2022-08-12T06:04:42.366Z,22.40
2022-08-12T06:08:00.241Z,22.60
2022-08-12T06:10:00.887Z,22.60
2022-08-12T06:12:29.114Z,22.80
2022-08-12T06:14:57.179Z,22.80
2022-08-12T06:17:25.506Z,22.90
2022-08-12T06:20:27.181Z,23.00
2022-08-12T06:22:43.821Z,23.10
2022-08-12T06:25:17.560Z,23.10
2022-08-12T06:28:07.606Z,23.10
2022-08-12T06:30:39.023Z,23.30
2022-08-12T06:33:22.134Z,23.30
2022-08-12T06:35:57.258Z,23.50
2022-08-12T06:38:27.880Z,23.50
2022-08-12T06:41:16.238Z,23.50
2022-08-12T06:44:06.166Z,23.70
2022-08-12T06:46:36.944Z,23.80
2022-08-12T06:49:06.910Z,23.90
2022-08-12T06:51:36.544Z,24.00
2022-08-12T06:54:04.823Z,24.20
2022-08-12T06:57:02.406Z,24.20
2022-08-12T06:59:22.722Z,24.30
2022-08-12T07:01:51.993Z,24.40
2022-08-12T07:04:38.377Z,24.50
2022-08-12T07:07:09.103Z,24.60
2022-08-12T07:10:03.763Z,24.80
2022-08-12T07:12:28.156Z,24.90
2022-08-12T07:14:57.136Z,25.00
2022-08-12T07:17:25.190Z,25.10
2022-08-12T07:19:56.127Z,25.10
2022-08-12T07:22:27.620Z,25.20
2022-08-12T07:25:09.552Z,25.30
2022-08-12T07:27:40.758Z,25.40
2022-08-12T07:30:10.940Z,25.60
2022-08-12T07:32:40.231Z,25.70
2022-08-12T07:35:09.145Z,25.90
2022-08-12T07:37:43.000Z,25.90
2022-08-12T07:40:12.908Z,25.90
2022-08-12T07:42:41.059Z,26.00
2022-08-12T07:45:10.158Z,26.10
2022-08-12T07:47:40.048Z,26.20
2022-08-12T07:50:09.480Z,26.30
2022-08-12T07:52:39.438Z,26.50
2022-08-12T07:55:10.268Z,26.60
2022-08-12T07:57:50.410Z,26.80
2022-08-12T08:00:18.863Z,27.00
2022-08-12T08:02:46.931Z,27.10
2022-08-12T08:05:15.509Z,27.20
2022-08-12T08:07:43.728Z,27.30
2022-08-12T08:10:13.856Z,27.40
2022-08-12T08:12:58.806Z,27.50
2022-08-12T08:16:00.612Z,27.70
2022-08-12T08:18:26.516Z,27.90
2022-08-12T08:20:57.441Z,28.00
2022-08-12T08:23:56.069Z,28.20
2022-08-12T08:26:27.207Z,28.40
2022-08-12T08:28:55.422Z,28.50
2022-08-12T08:31:23.471Z,28.70
2022-08-12T08:34:09.052Z,28.80
2022-08-12T08:36:40.077Z,29.00
2022-08-12T08:39:08.331Z,29.20
2022-08-12T08:42:17.582Z,29.30
2022-08-12T08:44:45.033Z,29.50
2022-08-12T08:47:14.197Z,29.80
2022-08-12T08:49:42.551Z,30.00
2022-08-12T08:52:12.433Z,30.20
2022-08-12T08:55:00.394Z,30.40
2022-08-12T09:00:19.538Z,30.80
2022-08-12T09:02:59.181Z,31.00
2022-08-12T09:06:01.821Z,31.30
2022-08-12T09:08:23.074Z,31.50
2022-08-12T09:10:59.794Z,31.60
2022-08-12T09:13:29.246Z,31.70
2022-08-12T09:16:20.051Z,32.00
2022-08-12T09:18:52.525Z,32.20
2022-08-12T09:24:10.412Z,32.50
2022-08-12T09:26:46.510Z,32.70
2022-08-12T09:29:20.301Z,32.90
2022-08-12T09:32:11.590Z,33.10
2022-08-12T09:34:57.699Z,33.20
2022-08-12T09:37:26.650Z,33.40
2022-08-12T09:40:04.631Z,33.50
2022-08-12T09:43:17.054Z,33.60
2022-08-12T09:46:06.782Z,33.80
2022-08-12T09:48:39.237Z,33.70
2022-08-12T09:51:17.106Z,33.90
2022-08-12T09:54:08.789Z,34.10
2022-08-12T09:56:58.210Z,34.30
2022-08-12T10:00:17.559Z,34.60
2022-08-12T10:02:45.601Z,34.70
2022-08-12T10:05:09.375Z,34.90
2022-08-12T10:07:42.086Z,34.90
2022-08-12T10:10:22.676Z,35.20
2022-08-12T10:13:10.610Z,35.30
2022-08-12T10:16:03.042Z,35.40
2022-08-12T10:18:35.204Z,35.50
2022-08-12T10:21:07.189Z,35.60
2022-08-12T10:23:40.475Z,35.80
2022-08-12T10:26:37.787Z,35.90
2022-08-12T10:30:03.198Z,36.10
2022-08-12T10:32:56.350Z,36.10
2022-08-12T10:35:11.028Z,36.40
2022-08-12T10:38:33.281Z,36.80
2022-08-12T10:40:31.979Z,36.60
2022-08-12T10:43:18.511Z,36.70
2022-08-12T10:45:49.768Z,36.80
2022-08-12T10:48:26.555Z,37.00
2022-08-12T10:52:04.570Z,36.90
2022-08-12T10:54:00.384Z,37.10
2022-08-12T10:56:34.779Z,36.80
2022-08-12T10:59:05.181Z,36.80
2022-08-12T11:04:20.793Z,36.90
2022-08-12T11:04:35.443Z,37.10
2022-08-12T11:08:37.319Z,37.40
2022-08-12T11:10:01.653Z,37.60
2022-08-12T11:12:56.759Z,37.70
2022-08-12T11:15:32.972Z,37.90
2022-08-12T11:18:12.078Z,38.00
2022-08-12T11:20:48.397Z,38.10
2022-08-12T11:23:35.880Z,38.10
2022-08-12T11:26:07.609Z,38.00
2022-08-12T11:28:38.252Z,37.70
2022-08-12T11:31:10.130Z,37.80
2022-08-12T11:34:06.625Z,38.00
2022-08-12T11:36:29.695Z,38.20
2022-08-12T11:39:04.297Z,38.40
2022-08-12T11:41:33.214Z,38.60
2022-08-12T11:44:31.987Z,38.50
2022-08-12T11:46:51.276Z,38.60
2022-08-12T11:49:31.047Z,38.50
2022-08-12T11:52:01.542Z,38.60
2022-08-12T11:54:33.521Z,38.60
2022-08-12T11:58:08.682Z,38.40
2022-08-12T12:02:38.722Z,38.50
2022-08-12T12:05:07.935Z,38.60
2022-08-12T12:08:38.852Z,38.30
2022-08-12T12:10:28.898Z,38.40
2022-08-12T12:12:56.887Z,38.50
2022-08-12T12:15:40.933Z,38.70
2022-08-12T12:18:22.361Z,38.90
2022-08-12T12:21:00.306Z,39.10
2022-08-12T12:23:30.898Z,39.10
2022-08-12T12:26:08.246Z,38.90
2022-08-12T12:28:41.513Z,38.80
2022-08-12T12:32:10.109Z,38.70
2022-08-12T12:34:12.212Z,38.60
2022-08-12T12:37:00.827Z,38.40
2022-08-12T12:39:29.228Z,38.60
2022-08-12T12:42:45.646Z,39.00
2022-08-12T12:45:19.653Z,39.20
2022-08-12T12:47:56.179Z,39.40
2022-08-12T12:50:34.704Z,39.70
2022-08-12T12:53:03.854Z,39.70
2022-08-12T12:55:35.992Z,39.30
2022-08-12T12:58:11.355Z,39.10
2022-08-12T13:00:51.058Z,38.90
2022-08-12T13:03:19.435Z,38.70
2022-08-12T13:05:53.560Z,38.60
2022-08-12T13:08:28.607Z,38.80
2022-08-12T13:11:07.546Z,39.10
2022-08-12T13:14:07.707Z,39.20
2022-08-12T13:16:29.387Z,39.20
2022-08-12T13:18:58.326Z,39.10
2022-08-12T13:21:33.314Z,39.10
2022-08-12T13:24:09.857Z,39.50
2022-08-12T13:26:40.136Z,39.50
2022-08-12T13:29:11.673Z,39.60
2022-08-12T13:32:13.475Z,39.50
2022-08-12T13:34:34.776Z,39.50
2022-08-12T13:37:09.183Z,39.30
2022-08-12T13:39:37.950Z,39.00
2022-08-12T13:42:13.888Z,38.80
2022-08-12T13:44:44.271Z,38.80
2022-08-12T13:47:19.695Z,38.90
2022-08-12T13:49:55.354Z,38.60
2022-08-12T13:52:24.360Z,38.70
2022-08-12T13:54:54.155Z,38.70
2022-08-12T13:57:26.463Z,38.50
2022-08-12T14:00:00.696Z,38.30
2022-08-12T14:02:29.787Z,38.40
2022-08-12T14:04:57.765Z,38.50
2022-08-12T14:07:27.493Z,38.60
2022-08-12T14:10:16.646Z,38.50
2022-08-12T14:12:53.986Z,38.40
2022-08-12T14:15:35.098Z,38.50
2022-08-12T14:18:23.427Z,38.70
2022-08-12T14:20:58.507Z,38.40
2022-08-12T14:24:05.685Z,38.20
2022-08-12T14:26:21.472Z,38.00
2022-08-12T14:28:57.532Z,37.60
2022-08-12T14:31:32.462Z,37.50
2022-08-12T14:34:05.111Z,37.60
2022-08-12T14:36:33.312Z,37.50
2022-08-12T14:39:06.053Z,37.40
2022-08-12T14:41:36.909Z,37.50
2022-08-12T14:45:00.001Z,37.20
2022-08-12T14:47:08.768Z,37.10
2022-08-12T14:50:33.598Z,37.10
2022-08-12T14:52:55.868Z,37.10
2022-08-12T14:58:03.677Z,37.00
2022-08-12T15:00:52.232Z,36.90
2022-08-12T15:03:52.884Z,37.00
2022-08-12T15:06:43.613Z,36.70
2022-08-12T15:09:11.876Z,36.70
2022-08-12T15:11:55.016Z,36.60
2022-08-12T15:14:25.452Z,36.50
2022-08-12T15:16:54.157Z,36.60
2022-08-12T15:20:11.905Z,36.70
2022-08-12T15:22:37.556Z,36.70
2022-08-12T15:24:59.718Z,36.70
2022-08-12T15:28:11.024Z,36.50
2022-08-12T15:30:22.630Z,36.40
2022-08-12T15:32:51.268Z,36.40
2022-08-12T15:35:21.999Z,36.40
2022-08-12T15:38:09.935Z,36.30
2022-08-12T15:40:46.665Z,36.20
2022-08-12T15:43:52.135Z,36.00
2022-08-12T15:46:15.393Z,36.00
2022-08-12T15:48:47.104Z,36.00
2022-08-12T15:51:57.609Z,35.90
2022-08-12T15:54:33.667Z,35.80
2022-08-12T15:57:05.559Z,35.60
2022-08-12T16:00:02.364Z,35.60
2022-08-12T16:02:22.016Z,35.60
2022-08-12T16:04:51.442Z,35.50
2022-08-12T16:07:25.939Z,35.60
2022-08-12T16:10:05.736Z,35.60
2022-08-12T16:12:39.537Z,35.60
2022-08-12T16:15:08.581Z,35.60
2022-08-12T16:18:20.332Z,35.60
2022-08-12T16:20:27.847Z,35.30
2022-08-12T16:23:26.788Z,35.10
2022-08-12T16:26:05.278Z,35.00
2022-08-12T16:28:42.574Z,34.90
2022-08-12T16:31:18.719Z,34.90
2022-08-12T16:33:59.186Z,35.00
2022-08-12T16:36:29.415Z,34.90
2022-08-12T16:39:01.864Z,34.70
2022-08-12T16:41:38.020Z,34.70
2022-08-12T16:44:08.487Z,34.60
2022-08-12T16:46:37.662Z,34.50
2022-08-12T16:49:13.300Z,34.40
2022-08-12T16:51:46.449Z,34.50
2022-08-12T16:54:18.511Z,34.30
2022-08-12T16:56:55.507Z,34.20
2022-08-12T16:59:30.882Z,34.20
2022-08-12T17:02:18.135Z,34.10
2022-08-12T17:05:03.634Z,34.00
2022-08-12T17:07:36.241Z,34.00
2022-08-12T17:10:08.891Z,34.00
2022-08-12T17:12:38.302Z,33.90
2022-08-12T17:15:21.393Z,33.90
2022-08-12T17:18:42.397Z,33.80
2022-08-12T17:20:48.172Z,33.80
2022-08-12T17:23:19.374Z,33.70
2022-08-12T17:25:53.007Z,33.60
2022-08-12T17:28:22.828Z,33.60
2022-08-12T17:30:59.975Z,33.60
2022-08-12T17:33:33.681Z,33.60
2022-08-12T17:36:05.518Z,33.60
2022-08-12T17:38:35.076Z,33.50
2022-08-12T17:41:22.712Z,33.40
2022-08-12T17:43:58.479Z,33.30
2022-08-12T17:46:33.381Z,33.10
2022-08-12T17:49:18.904Z,33.10
2022-08-12T17:52:02.602Z,33.00
2022-08-12T17:54:33.209Z,32.90
2022-08-12T17:57:16.074Z,32.80
2022-08-12T17:59:48.530Z,32.80
2022-08-12T18:02:25.507Z,32.80
2022-08-12T18:05:09.714Z,32.80
2022-08-12T18:07:39.492Z,32.70
2022-08-12T18:10:08.726Z,32.50
2022-08-12T18:12:40.133Z,32.50
2022-08-12T18:15:11.632Z,32.40
2022-08-12T18:17:59.251Z,32.30
2022-08-12T18:20:28.786Z,32.20
2022-08-12T18:22:59.566Z,32.10
2022-08-12T18:26:14.702Z,32.20
2022-08-12T18:28:42.975Z,32.20
2022-08-12T18:31:13.473Z,32.10
2022-08-12T18:33:46.055Z,32.10
2022-08-12T18:36:22.625Z,32.00
2022-08-12T18:38:56.126Z,31.90
2022-08-12T18:41:34.506Z,31.80
2022-08-12T18:44:08.026Z,31.70
2022-08-12T18:46:47.343Z,31.70
2022-08-12T18:49:20.652Z,31.70
2022-08-12T18:51:55.585Z,31.60
2022-08-12T18:54:34.056Z,31.60
2022-08-12T18:57:05.056Z,31.50
2022-08-12T19:00:02.533Z,31.40
2022-08-12T19:02:26.484Z,31.40
2022-08-12T19:04:57.367Z,31.30
2022-08-12T19:07:29.851Z,31.20
2022-08-12T19:10:18.198Z,31.10
2022-08-12T19:13:09.255Z,31.00
2022-08-12T19:15:43.216Z,30.90
2022-08-12T19:18:17.480Z,30.90
2022-08-12T19:20:50.382Z,30.80
2022-08-12T19:23:21.171Z,30.70
2022-08-12T19:26:01.024Z,30.70
2022-08-12T19:28:34.621Z,30.70
2022-08-12T19:31:55.650Z,30.70
2022-08-12T19:34:56.429Z,30.70
2022-08-12T19:37:20.108Z,30.60
2022-08-12T19:40:10.122Z,30.50
2022-08-12T19:42:44.481Z,30.40
2022-08-12T19:45:15.815Z,30.40
2022-08-12T19:47:46.681Z,30.30
2022-08-12T19:50:20.159Z,30.20
2022-08-12T19:52:51.394Z,30.10
2022-08-12T19:55:23.396Z,30.10
2022-08-12T19:58:02.866Z,30.00
2022-08-12T20:00:34.893Z,29.90
2022-08-12T20:03:06.545Z,29.80
2022-08-12T20:06:05.994Z,29.70
2022-08-12T20:08:33.975Z,29.60
2022-08-12T20:12:08.991Z,29.50
2022-08-12T20:14:00.999Z,29.40
2022-08-12T20:16:56.387Z,29.30
2022-08-12T20:19:52.391Z,29.30
2022-08-12T20:22:23.441Z,29.20
2022-08-12T20:24:55.406Z,29.10
2022-08-12T20:27:53.675Z,29.10
2022-08-12T20:30:15.062Z,29.10
2022-08-12T20:32:54.033Z,29.00
2022-08-12T20:35:26.235Z,28.80
2022-08-12T20:38:26.396Z,28.70
2022-08-12T20:40:55.990Z,28.70
2022-08-12T20:43:28.455Z,28.70
2022-08-12T20:46:00.306Z,28.70
2022-08-12T20:48:29.547Z,28.70
2022-08-12T20:51:04.230Z,28.70
2022-08-12T20:53:53.933Z,28.60
2022-08-12T20:56:30.398Z,28.50
2022-08-12T20:59:01.193Z,28.40
2022-08-12T21:01:46.047Z,28.40
2022-08-12T21:04:34.135Z,28.30
2022-08-12T21:07:09.021Z,28.20
2022-08-12T21:09:41.463Z,28.00
2022-08-12T21:12:31.391Z,28.00
2022-08-12T21:15:17.289Z,28.00
2022-08-12T21:18:00.694Z,28.00
2022-08-12T21:20:37.980Z,28.00
2022-08-12T21:23:07.605Z,28.00
2022-08-12T21:25:45.385Z,28.00
2022-08-12T21:28:14.364Z,28.00
2022-08-12T21:30:54.841Z,28.00
2022-08-12T21:33:31.920Z,28.00
2022-08-12T21:36:02.622Z,27.80
2022-08-12T21:38:40.340Z,27.80
2022-08-12T21:41:15.632Z,27.70
2022-08-12T21:43:45.096Z,27.70
2022-08-12T21:46:34.584Z,27.70
2022-08-12T21:49:05.586Z,27.50
2022-08-12T21:51:35.331Z,27.50
2022-08-12T21:54:21.612Z,27.40
2022-08-12T21:56:53.703Z,27.30
2022-08-12T21:59:22.788Z,27.30
2022-08-12T22:01:51.463Z,27.20
2022-08-12T22:04:37.339Z,27.10
2022-08-12T22:07:06.942Z,27.10
2022-08-12T22:09:42.808Z,27.00
2022-08-12T22:12:30.022Z,26.90
2022-08-12T22:14:58.255Z,26.90
2022-08-12T22:17:49.391Z,26.90
2022-08-12T22:20:21.639Z,26.80
2022-08-12T22:22:56.408Z,26.70
2022-08-12T22:25:27.948Z,26.60
2022-08-12T22:28:13.601Z,26.70
2022-08-12T22:31:01.568Z,26.60
2022-08-12T22:33:29.690Z,26.50
2022-08-12T22:36:24.304Z,26.40
2022-08-12T22:38:58.744Z,26.30
2022-08-12T22:41:46.307Z,26.20
